sensor_id;sensor_type;location;lat;lon;timestamp;P1;durP1;ratioP1;P2;durP2;ratioP2
11677;SDS011;5895;41.950;24.372;2024-03-23T00:52:00;6.25;;;4.95;;
11677;SDS011;5895;41.950;24.372;2024-03-23T00:54:27;5.78;;;5.18;;
11677;SDS011;5895;41.950;24.372;2024-03-23T00:56:53;6.85;;;5.80;;
11677;SDS011;5895;41.950;24.372;2024-03-23T00:59:20;7.68;;;5.53;;
11677;SDS011;5895;41.950;24.372;2024-03-23T01:01:47;6.15;;;5.35;;
11677;SDS011;5895;41.950;24.372;2024-03-23T01:04:14;7.68;;;6.28;;
11677;SDS011;5895;41.950;24.372;2024-03-23T01:06:40;5.70;;;5.20;;
11677;SDS011;5895;41.950;24.372;2024-03-23T01:09:09;4.43;;;4.00;;
11677;SDS011;5895;41.950;24.372;2024-03-23T01:11:36;5.07;;;4.57;;
11677;SDS011;5895;41.950;24.372;2024-03-23T01:14:03;4.70;;;4.30;;
11677;SDS011;5895;41.950;24.372;2024-03-23T01:16:29;6.93;;;5.82;;
11677;SDS011;5895;41.950;24.372;2024-03-23T01:18:56;6.88;;;6.00;;
11677;SDS011;5895;41.950;24.372;2024-03-23T01:21:22;7.35;;;5.65;;
11677;SDS011;5895;41.950;24.372;2024-03-23T01:23:49;6.47;;;5.18;;
11677;SDS011;5895;41.950;24.372;2024-03-23T01:26:17;7.35;;;5.90;;
11677;SDS011;5895;41.950;24.372;2024-03-23T01:28:44;9.18;;;6.63;;
11677;SDS011;5895;41.950;24.372;2024-03-23T01:31:10;6.57;;;5.93;;
11677;SDS011;5895;41.950;24.372;2024-03-23T01:33:37;6.30;;;5.70;;
11677;SDS011;5895;41.950;24.372;2024-03-23T01:36:03;8.07;;;6.03;;
11677;SDS011;5895;41.950;24.372;2024-03-23T01:38:30;6.38;;;5.50;;
11677;SDS011;5895;41.950;24.372;2024-03-23T01:40:56;6.07;;;5.47;;
11677;SDS011;5895;41.950;24.372;2024-03-23T01:43:25;6.20;;;5.07;;
11677;SDS011;5895;41.950;24.372;2024-03-23T01:45:51;5.97;;;5.38;;
11677;SDS011;5895;41.950;24.372;2024-03-23T01:48:19;6.60;;;5.40;;
11677;SDS011;5895;41.950;24.372;2024-03-23T01:50:46;5.20;;;4.70;;
11677;SDS011;5895;41.950;24.372;2024-03-23T01:53:13;6.25;;;4.75;;
11677;SDS011;5895;41.950;24.372;2024-03-23T01:55:42;4.88;;;4.47;;
11677;SDS011;5895;41.950;24.372;2024-03-23T01:58:09;4.97;;;4.47;;
11677;SDS011;5895;41.950;24.372;2024-03-23T02:00:37;6.18;;;4.97;;
11677;SDS011;5895;41.950;24.372;2024-03-23T02:05:48;28.08;;;24.48;;
11677;SDS011;5895;41.950;24.372;2024-03-23T02:08:16;14.93;;;12.15;;
11677;SDS011;5895;41.950;24.372;2024-03-23T02:10:43;9.95;;;8.95;;
11677;SDS011;5895;41.950;24.372;2024-03-23T02:13:09;7.88;;;7.07;;
11677;SDS011;5895;41.950;24.372;2024-03-23T02:15:38;6.40;;;5.80;;
11677;SDS011;5895;41.950;24.372;2024-03-23T02:18:06;5.15;;;4.65;;
11677;SDS011;5895;41.950;24.372;2024-03-23T02:20:33;5.38;;;4.47;;
11677;SDS011;5895;41.950;24.372;2024-03-23T02:23:01;4.95;;;4.45;;
11677;SDS011;5895;41.950;24.372;2024-03-23T02:25:27;4.10;;;3.70;;
11677;SDS011;5895;41.950;24.372;2024-03-23T02:27:54;4.43;;;4.03;;
11677;SDS011;5895;41.950;24.372;2024-03-23T02:30:20;5.15;;;4.20;;
11677;SDS011;5895;41.950;24.372;2024-03-23T02:32:47;4.40;;;4.03;;
11677;SDS011;5895;41.950;24.372;2024-03-23T02:35:13;3.90;;;3.60;;
11677;SDS011;5895;41.950;24.372;2024-03-23T02:37:40;3.90;;;3.60;;
11677;SDS011;5895;41.950;24.372;2024-03-23T02:40:08;4.93;;;4.15;;
11677;SDS011;5895;41.950;24.372;2024-03-23T02:42:35;4.30;;;3.92;;
11677;SDS011;5895;41.950;24.372;2024-03-23T02:45:02;4.93;;;4.40;;
11677;SDS011;5895;41.950;24.372;2024-03-23T02:47:30;4.30;;;3.90;;
11677;SDS011;5895;41.950;24.372;2024-03-23T02:49:56;4.82;;;4.28;;
11677;SDS011;5895;41.950;24.372;2024-03-23T02:52:23;4.57;;;4.10;;
11677;SDS011;5895;41.950;24.372;2024-03-23T02:54:49;4.70;;;4.18;;
11677;SDS011;5895;41.950;24.372;2024-03-23T02:57:17;4.45;;;4.05;;
11677;SDS011;5895;41.950;24.372;2024-03-23T02:59:43;4.97;;;4.57;;
11677;SDS011;5895;41.950;24.372;2024-03-23T03:02:11;4.32;;;3.85;;
11677;SDS011;5895;41.950;24.372;2024-03-23T03:04:38;4.70;;;3.92;;
11677;SDS011;5895;41.950;24.372;2024-03-23T03:07:06;4.72;;;4.25;;
11677;SDS011;5895;41.950;24.372;2024-03-23T03:09:32;4.38;;;3.95;;
11677;SDS011;5895;41.950;24.372;2024-03-23T03:12:00;5.45;;;4.75;;
11677;SDS011;5895;41.950;24.372;2024-03-23T03:14:28;5.00;;;4.60;;
11677;SDS011;5895;41.950;24.372;2024-03-23T03:16:55;5.75;;;4.40;;
11677;SDS011;5895;41.950;24.372;2024-03-23T03:19:21;4.55;;;4.15;;
11677;SDS011;5895;41.950;24.372;2024-03-23T03:21:48;4.55;;;4.15;;
11677;SDS011;5895;41.950;24.372;2024-03-23T03:24:14;4.80;;;4.35;;
11677;SDS011;5895;41.950;24.372;2024-03-23T03:26:42;4.90;;;4.40;;
11677;SDS011;5895;41.950;24.372;2024-03-23T03:29:08;5.38;;;4.88;;
11677;SDS011;5895;41.950;24.372;2024-03-23T03:31:38;4.90;;;4.40;;
11677;SDS011;5895;41.950;24.372;2024-03-23T03:34:04;5.00;;;4.50;;
11677;SDS011;5895;41.950;24.372;2024-03-23T03:36:31;5.07;;;4.60;;
11677;SDS011;5895;41.950;24.372;2024-03-23T03:38:57;4.88;;;4.40;;
11677;SDS011;5895;41.950;24.372;2024-03-23T03:41:24;5.30;;;4.80;;
11677;SDS011;5895;41.950;24.372;2024-03-23T03:43:50;6.70;;;5.22;;
11677;SDS011;5895;41.950;24.372;2024-03-23T03:46:17;5.38;;;4.88;;
11677;SDS011;5895;41.950;24.372;2024-03-23T03:48:45;4.85;;;4.45;;
11677;SDS011;5895;41.950;24.372;2024-03-23T03:51:13;5.55;;;4.78;;
11677;SDS011;5895;41.950;24.372;2024-03-23T03:53:39;7.05;;;4.45;;
11677;SDS011;5895;41.950;24.372;2024-03-23T03:56:06;5.47;;;4.95;;
11677;SDS011;5895;41.950;24.372;2024-03-23T03:58:32;4.40;;;4.00;;
11677;SDS011;5895;41.950;24.372;2024-03-23T04:00:59;4.97;;;4.50;;
11677;SDS011;5895;41.950;24.372;2024-03-23T04:03:25;5.30;;;4.80;;
11677;SDS011;5895;41.950;24.372;2024-03-23T04:05:54;5.72;;;5.13;;
11677;SDS011;5895;41.950;24.372;2024-03-23T04:08:20;7.25;;;5.18;;
11677;SDS011;5895;41.950;24.372;2024-03-23T04:10:47;6.40;;;5.15;;
11677;SDS011;5895;41.950;24.372;2024-03-23T04:13:13;5.43;;;4.93;;
11677;SDS011;5895;41.950;24.372;2024-03-23T04:15:41;6.90;;;5.90;;
11677;SDS011;5895;41.950;24.372;2024-03-23T04:18:07;9.70;;;7.63;;
11677;SDS011;5895;41.950;24.372;2024-03-23T04:20:34;12.00;;;8.23;;
11677;SDS011;5895;41.950;24.372;2024-03-23T04:23:02;4.80;;;4.30;;
11677;SDS011;5895;41.950;24.372;2024-03-23T04:25:29;7.75;;;6.63;;
11677;SDS011;5895;41.950;24.372;2024-03-23T04:27:55;9.80;;;7.97;;
11677;SDS011;5895;41.950;24.372;2024-03-23T04:30:22;7.90;;;6.35;;
11677;SDS011;5895;41.950;24.372;2024-03-23T04:32:50;10.30;;;7.90;;
11677;SDS011;5895;41.950;24.372;2024-03-23T04:35:17;8.65;;;7.20;;
11677;SDS011;5895;41.950;24.372;2024-03-23T04:37:45;7.20;;;6.07;;
11677;SDS011;5895;41.950;24.372;2024-03-23T04:40:13;9.35;;;7.70;;
11677;SDS011;5895;41.950;24.372;2024-03-23T04:42:40;10.73;;;8.98;;
11677;SDS011;5895;41.950;24.372;2024-03-23T04:45:08;10.95;;;9.00;;
11677;SDS011;5895;41.950;24.372;2024-03-23T04:47:35;12.60;;;10.20;;
11677;SDS011;5895;41.950;24.372;2024-03-23T04:50:03;9.88;;;7.68;;
11677;SDS011;5895;41.950;24.372;2024-03-23T04:52:31;6.88;;;6.18;;
11677;SDS011;5895;41.950;24.372;2024-03-23T04:54:57;21.42;;;17.45;;
11677;SDS011;5895;41.950;24.372;2024-03-23T04:57:26;32.45;;;26.05;;
11677;SDS011;5895;41.950;24.372;2024-03-23T04:59:52;46.42;;;36.53;;
11677;SDS011;5895;41.950;24.372;2024-03-23T05:02:19;28.45;;;23.65;;
11677;SDS011;5895;41.950;24.372;2024-03-23T05:04:45;22.15;;;18.45;;
11677;SDS011;5895;41.950;24.372;2024-03-23T05:07:12;16.48;;;14.07;;
11677;SDS011;5895;41.950;24.372;2024-03-23T05:09:38;13.25;;;11.50;;
11677;SDS011;5895;41.950;24.372;2024-03-23T05:12:05;23.70;;;19.38;;
11677;SDS011;5895;41.950;24.372;2024-03-23T05:14:33;27.55;;;20.60;;
11677;SDS011;5895;41.950;24.372;2024-03-23T05:17:00;37.83;;;28.00;;
11677;SDS011;5895;41.950;24.372;2024-03-23T05:19:26;25.67;;;18.80;;
11677;SDS011;5895;41.950;24.372;2024-03-23T05:21:53;28.08;;;19.67;;
11677;SDS011;5895;41.950;24.372;2024-03-23T05:24:19;22.98;;;18.10;;
11677;SDS011;5895;41.950;24.372;2024-03-23T05:26:46;19.08;;;14.55;;
11677;SDS011;5895;41.950;24.372;2024-03-23T05:29:12;12.38;;;10.30;;
11677;SDS011;5895;41.950;24.372;2024-03-23T05:31:40;10.48;;;8.15;;
11677;SDS011;5895;41.950;24.372;2024-03-23T05:34:07;7.10;;;6.40;;
11677;SDS011;5895;41.950;24.372;2024-03-23T05:36:34;8.27;;;7.45;;
11677;SDS011;5895;41.950;24.372;2024-03-23T05:39:01;18.98;;;14.43;;
11677;SDS011;5895;41.950;24.372;2024-03-23T05:41:28;15.63;;;12.20;;
11677;SDS011;5895;41.950;24.372;2024-03-23T05:43:54;6.32;;;5.65;;
11677;SDS011;5895;41.950;24.372;2024-03-23T05:46:21;6.93;;;6.10;;
11677;SDS011;5895;41.950;24.372;2024-03-23T05:48:48;4.63;;;4.13;;
11677;SDS011;5895;41.950;24.372;2024-03-23T05:51:17;5.90;;;5.05;;
11677;SDS011;5895;41.950;24.372;2024-03-23T05:53:43;4.45;;;4.05;;
11677;SDS011;5895;41.950;24.372;2024-03-23T05:56:10;4.10;;;3.70;;
11677;SDS011;5895;41.950;24.372;2024-03-23T05:58:36;4.70;;;4.30;;
11677;SDS011;5895;41.950;24.372;2024-03-23T06:01:03;4.32;;;3.92;;
11677;SDS011;5895;41.950;24.372;2024-03-23T06:03:29;3.78;;;3.42;;
11677;SDS011;5895;41.950;24.372;2024-03-23T06:05:58;4.95;;;3.40;;
11677;SDS011;5895;41.950;24.372;2024-03-23T06:08:24;3.83;;;3.47;;
11677;SDS011;5895;41.950;24.372;2024-03-23T06:10:51;4.00;;;3.60;;
11677;SDS011;5895;41.950;24.372;2024-03-23T06:13:17;5.07;;;3.22;;
11677;SDS011;5895;41.950;24.372;2024-03-23T06:15:46;3.63;;;3.33;;
11677;SDS011;5895;41.950;24.372;2024-03-23T06:18:14;4.03;;;3.45;;
11677;SDS011;5895;41.950;24.372;2024-03-23T06:20:41;5.13;;;3.63;;
11677;SDS011;5895;41.950;24.372;2024-03-23T06:23:08;4.13;;;3.72;;
11677;SDS011;5895;41.950;24.372;2024-03-23T06:25:35;3.95;;;3.38;;
11677;SDS011;5895;41.950;24.372;2024-03-23T06:28:01;4.65;;;3.60;;
11677;SDS011;5895;41.950;24.372;2024-03-23T06:30:29;4.07;;;3.33;;
11677;SDS011;5895;41.950;24.372;2024-03-23T06:32:57;4.75;;;4.15;;
11677;SDS011;5895;41.950;24.372;2024-03-23T06:35:24;4.25;;;3.85;;
11677;SDS011;5895;41.950;24.372;2024-03-23T06:37:50;4.63;;;4.13;;
11677;SDS011;5895;41.950;24.372;2024-03-23T06:40:18;5.18;;;3.80;;
11677;SDS011;5895;41.950;24.372;2024-03-23T06:42:44;3.92;;;3.53;;
11677;SDS011;5895;41.950;24.372;2024-03-23T06:45:11;6.38;;;3.38;;
11677;SDS011;5895;41.950;24.372;2024-03-23T06:47:37;4.05;;;3.70;;
11677;SDS011;5895;41.950;24.372;2024-03-23T06:50:04;4.53;;;3.47;;
11677;SDS011;5895;41.950;24.372;2024-03-23T06:52:31;4.45;;;4.05;;
11677;SDS011;5895;41.950;24.372;2024-03-23T06:54:58;3.95;;;3.55;;
11677;SDS011;5895;41.950;24.372;2024-03-23T06:57:26;3.83;;;3.40;;
11677;SDS011;5895;41.950;24.372;2024-03-23T06:59:53;4.07;;;3.70;;
11677;SDS011;5895;41.950;24.372;2024-03-23T07:02:19;4.15;;;3.40;;
11677;SDS011;5895;41.950;24.372;2024-03-23T07:04:45;3.83;;;3.22;;
11677;SDS011;5895;41.950;24.372;2024-03-23T07:07:11;3.88;;;3.15;;
11677;SDS011;5895;41.950;24.372;2024-03-23T07:09:38;3.40;;;3.10;;
11677;SDS011;5895;41.950;24.372;2024-03-23T07:12:05;4.10;;;3.38;;
11677;SDS011;5895;41.950;24.372;2024-03-23T07:14:33;4.13;;;3.22;;
11677;SDS011;5895;41.950;24.372;2024-03-23T07:16:59;4.10;;;3.30;;
11677;SDS011;5895;41.950;24.372;2024-03-23T07:19:26;4.22;;;3.53;;
11677;SDS011;5895;41.950;24.372;2024-03-23T07:21:53;4.80;;;3.40;;
11677;SDS011;5895;41.950;24.372;2024-03-23T07:24:20;3.80;;;3.30;;
11677;SDS011;5895;41.950;24.372;2024-03-23T07:26:46;3.33;;;3.03;;
11677;SDS011;5895;41.950;24.372;2024-03-23T07:29:13;5.57;;;3.55;;
11677;SDS011;5895;41.950;24.372;2024-03-23T07:31:41;4.00;;;3.60;;
11677;SDS011;5895;41.950;24.372;2024-03-23T07:34:08;3.92;;;3.55;;
11677;SDS011;5895;41.950;24.372;2024-03-23T07:36:34;4.85;;;3.60;;
11677;SDS011;5895;41.950;24.372;2024-03-23T07:39:01;3.67;;;3.30;;
11677;SDS011;5895;41.950;24.372;2024-03-23T07:41:26;5.10;;;3.75;;
11677;SDS011;5895;41.950;24.372;2024-03-23T07:43:54;3.65;;;3.35;;
11677;SDS011;5895;41.950;24.372;2024-03-23T07:46:20;4.95;;;3.58;;
11677;SDS011;5895;41.950;24.372;2024-03-23T07:48:48;3.80;;;3.50;;
11677;SDS011;5895;41.950;24.372;2024-03-23T07:51:16;4.25;;;3.60;;
11677;SDS011;5895;41.950;24.372;2024-03-23T07:53:43;4.97;;;4.25;;
11677;SDS011;5895;41.950;24.372;2024-03-23T07:56:10;5.28;;;4.80;;
11677;SDS011;5895;41.950;24.372;2024-03-23T07:58:37;4.30;;;3.90;;
11677;SDS011;5895;41.950;24.372;2024-03-23T08:01:04;5.35;;;3.97;;
11677;SDS011;5895;41.950;24.372;2024-03-23T08:03:33;4.38;;;3.95;;
11677;SDS011;5895;41.950;24.372;2024-03-23T08:06:07;5.10;;;4.07;;
11677;SDS011;5895;41.950;24.372;2024-03-23T08:08:35;3.90;;;3.50;;
11677;SDS011;5895;41.950;24.372;2024-03-23T08:11:01;4.50;;;3.10;;
11677;SDS011;5895;41.950;24.372;2024-03-23T08:13:28;8.10;;;3.58;;
11677;SDS011;5895;41.950;24.372;2024-03-23T08:15:56;4.05;;;2.90;;
11677;SDS011;5895;41.950;24.372;2024-03-23T08:18:23;3.38;;;3.00;;
11677;SDS011;5895;41.950;24.372;2024-03-23T08:20:55;4.88;;;3.08;;
11677;SDS011;5895;41.950;24.372;2024-03-23T08:23:25;4.15;;;3.03;;
11677;SDS011;5895;41.950;24.372;2024-03-23T08:25:51;3.10;;;2.80;;
11677;SDS011;5895;41.950;24.372;2024-03-23T08:28:18;4.20;;;3.03;;
11677;SDS011;5895;41.950;24.372;2024-03-23T08:30:44;3.83;;;2.85;;
11677;SDS011;5895;41.950;24.372;2024-03-23T08:33:11;3.33;;;2.95;;
11677;SDS011;5895;41.950;24.372;2024-03-23T08:35:37;3.47;;;3.17;;
11677;SDS011;5895;41.950;24.372;2024-03-23T08:38:05;3.42;;;3.13;;
11677;SDS011;5895;41.950;24.372;2024-03-23T08:40:32;3.47;;;3.17;;
11677;SDS011;5895;41.950;24.372;2024-03-23T08:42:59;5.30;;;3.05;;
11677;SDS011;5895;41.950;24.372;2024-03-23T08:45:25;4.22;;;3.28;;
11677;SDS011;5895;41.950;24.372;2024-03-23T08:47:52;4.13;;;3.20;;
11677;SDS011;5895;41.950;24.372;2024-03-23T08:50:19;3.47;;;3.17;;
11677;SDS011;5895;41.950;24.372;2024-03-23T08:52:47;3.80;;;3.03;;
11677;SDS011;5895;41.950;24.372;2024-03-23T08:55:13;3.88;;;3.20;;
11677;SDS011;5895;41.950;24.372;2024-03-23T08:57:41;6.03;;;3.22;;
11677;SDS011;5895;41.950;24.372;2024-03-23T09:00:07;4.50;;;3.30;;
11677;SDS011;5895;41.950;24.372;2024-03-23T09:02:36;3.88;;;3.40;;
11677;SDS011;5895;41.950;24.372;2024-03-23T09:05:04;5.32;;;3.50;;
11677;SDS011;5895;41.950;24.372;2024-03-23T09:07:30;4.63;;;3.58;;
11677;SDS011;5895;41.950;24.372;2024-03-23T09:09:58;4.22;;;3.28;;
11677;SDS011;5895;41.950;24.372;2024-03-23T09:12:23;4.13;;;3.50;;
11677;SDS011;5895;41.950;24.372;2024-03-23T09:14:52;3.38;;;3.08;;
11677;SDS011;5895;41.950;24.372;2024-03-23T09:17:19;3.78;;;3.25;;
11677;SDS011;5895;41.950;24.372;2024-03-23T09:19:46;4.03;;;3.35;;
11677;SDS011;5895;41.950;24.372;2024-03-23T09:22:12;5.55;;;3.10;;
11677;SDS011;5895;41.950;24.372;2024-03-23T09:24:39;4.05;;;3.65;;
11677;SDS011;5895;41.950;24.372;2024-03-23T09:27:05;5.00;;;4.18;;
11677;SDS011;5895;41.950;24.372;2024-03-23T09:29:32;3.45;;;3.10;;
11677;SDS011;5895;41.950;24.372;2024-03-23T09:31:59;5.40;;;3.13;;
11677;SDS011;5895;41.950;24.372;2024-03-23T09:34:26;3.40;;;2.85;;
11677;SDS011;5895;41.950;24.372;2024-03-23T09:36:52;2.33;;;2.13;;
11677;SDS011;5895;41.950;24.372;2024-03-23T09:39:19;6.35;;;2.95;;
11677;SDS011;5895;41.950;24.372;2024-03-23T09:41:45;2.88;;;2.55;;
11677;SDS011;5895;41.950;24.372;2024-03-23T09:44:12;4.68;;;3.30;;
11677;SDS011;5895;41.950;24.372;2024-03-23T09:46:38;3.45;;;3.15;;
11677;SDS011;5895;41.950;24.372;2024-03-23T09:49:08;3.60;;;3.20;;
11677;SDS011;5895;41.950;24.372;2024-03-23T09:51:35;3.70;;;2.85;;
11677;SDS011;5895;41.950;24.372;2024-03-23T09:54:03;3.22;;;2.92;;
11677;SDS011;5895;41.950;24.372;2024-03-23T09:56:29;3.13;;;2.83;;
11677;SDS011;5895;41.950;24.372;2024-03-23T09:59:05;3.80;;;3.28;;
11677;SDS011;5895;41.950;24.372;2024-03-23T10:01:31;3.15;;;2.78;;
11677;SDS011;5895;41.950;24.372;2024-03-23T10:03:59;3.95;;;2.80;;
11677;SDS011;5895;41.950;24.372;2024-03-23T10:06:26;4.95;;;2.60;;
11677;SDS011;5895;41.950;24.372;2024-03-23T10:08:53;3.30;;;3.00;;
11677;SDS011;5895;41.950;24.372;2024-03-23T10:11:20;3.70;;;3.30;;
11677;SDS011;5895;41.950;24.372;2024-03-23T10:13:48;2.65;;;2.42;;
11677;SDS011;5895;41.950;24.372;2024-03-23T10:16:20;2.80;;;2.47;;
11677;SDS011;5895;41.950;24.372;2024-03-23T10:18:48;3.10;;;2.80;;
11677;SDS011;5895;41.950;24.372;2024-03-23T10:21:14;5.55;;;3.28;;
11677;SDS011;5895;41.950;24.372;2024-03-23T10:23:44;8.38;;;4.20;;
11677;SDS011;5895;41.950;24.372;2024-03-23T10:26:14;4.80;;;4.00;;
11677;SDS011;5895;41.950;24.372;2024-03-23T10:28:56;3.47;;;3.17;;
11677;SDS011;5895;41.950;24.372;2024-03-23T10:31:24;11.32;;;4.47;;
11677;SDS011;5895;41.950;24.372;2024-03-23T10:33:52;8.23;;;5.20;;
11677;SDS011;5895;41.950;24.372;2024-03-23T10:36:19;4.65;;;3.60;;
11677;SDS011;5895;41.950;24.372;2024-03-23T10:38:49;6.80;;;4.50;;
11677;SDS011;5895;41.950;24.372;2024-03-23T10:41:16;4.43;;;3.67;;
11677;SDS011;5895;41.950;24.372;2024-03-23T10:43:45;6.93;;;4.00;;
11677;SDS011;5895;41.950;24.372;2024-03-23T10:46:11;6.97;;;4.20;;
11677;SDS011;5895;41.950;24.372;2024-03-23T10:48:38;26.17;;;5.50;;
11677;SDS011;5895;41.950;24.372;2024-03-23T10:51:05;4.65;;;4.22;;
11677;SDS011;5895;41.950;24.372;2024-03-23T10:53:34;6.88;;;5.72;;
11677;SDS011;5895;41.950;24.372;2024-03-23T10:56:04;4.70;;;4.18;;
11677;SDS011;5895;41.950;24.372;2024-03-23T10:58:33;8.38;;;4.03;;
11677;SDS011;5895;41.950;24.372;2024-03-23T11:01:03;5.05;;;4.05;;
11677;SDS011;5895;41.950;24.372;2024-03-23T11:03:31;4.93;;;3.70;;
11677;SDS011;5895;41.950;24.372;2024-03-23T11:05:58;4.03;;;3.60;;
11677;SDS011;5895;41.950;24.372;2024-03-23T11:08:32;3.85;;;3.50;;
11677;SDS011;5895;41.950;24.372;2024-03-23T11:11:14;4.93;;;3.15;;
11677;SDS011;5895;41.950;24.372;2024-03-23T11:13:44;7.85;;;3.10;;
11677;SDS011;5895;41.950;24.372;2024-03-23T11:16:14;6.30;;;4.25;;
11677;SDS011;5895;41.950;24.372;2024-03-23T11:18:41;3.88;;;3.25;;
11677;SDS011;5895;41.950;24.372;2024-03-23T11:21:08;13.20;;;7.22;;
11677;SDS011;5895;41.950;24.372;2024-03-23T11:23:36;5.45;;;3.40;;
11677;SDS011;5895;41.950;24.372;2024-03-23T11:26:02;2.58;;;2.38;;
11677;SDS011;5895;41.950;24.372;2024-03-23T11:28:35;3.22;;;2.30;;
11677;SDS011;5895;41.950;24.372;2024-03-23T11:31:01;3.38;;;2.40;;
11677;SDS011;5895;41.950;24.372;2024-03-23T11:33:35;4.18;;;3.78;;
11677;SDS011;5895;41.950;24.372;2024-03-23T11:36:01;4.40;;;3.35;;
11677;SDS011;5895;41.950;24.372;2024-03-23T11:38:28;4.28;;;3.10;;
11677;SDS011;5895;41.950;24.372;2024-03-23T11:40:54;3.95;;;2.72;;
11677;SDS011;5895;41.950;24.372;2024-03-23T11:43:21;7.28;;;3.13;;
11677;SDS011;5895;41.950;24.372;2024-03-23T11:45:50;2.85;;;2.50;;
11677;SDS011;5895;41.950;24.372;2024-03-23T11:48:19;2.97;;;2.58;;
11677;SDS011;5895;41.950;24.372;2024-03-23T11:50:47;5.28;;;2.60;;
11677;SDS011;5895;41.950;24.372;2024-03-23T11:53:16;5.97;;;4.20;;
11677;SDS011;5895;41.950;24.372;2024-03-23T11:55:43;2.55;;;2.33;;
11677;SDS011;5895;41.950;24.372;2024-03-23T11:58:12;6.22;;;4.38;;
11677;SDS011;5895;41.950;24.372;2024-03-23T12:00:38;6.55;;;4.30;;
11677;SDS011;5895;41.950;24.372;2024-03-23T12:03:07;5.43;;;3.33;;
11677;SDS011;5895;41.950;24.372;2024-03-23T12:05:35;3.38;;;3.08;;
11677;SDS011;5895;41.950;24.372;2024-03-23T12:10:51;13.55;;;5.20;;
11677;SDS011;5895;41.950;24.372;2024-03-23T12:13:19;5.60;;;4.28;;
11677;SDS011;5895;41.950;24.372;2024-03-23T12:15:46;8.57;;;6.13;;
11677;SDS011;5895;41.950;24.372;2024-03-23T12:18:16;3.30;;;2.97;;
11677;SDS011;5895;41.950;24.372;2024-03-23T12:20:42;3.13;;;2.80;;
11677;SDS011;5895;41.950;24.372;2024-03-23T12:23:10;6.93;;;2.90;;
11677;SDS011;5895;41.950;24.372;2024-03-23T12:25:37;3.03;;;2.70;;
11677;SDS011;5895;41.950;24.372;2024-03-23T12:28:05;4.68;;;3.38;;
11677;SDS011;5895;41.950;24.372;2024-03-23T12:30:32;5.20;;;4.10;;
11677;SDS011;5895;41.950;24.372;2024-03-23T12:33:02;9.45;;;4.60;;
11677;SDS011;5895;41.950;24.372;2024-03-23T12:35:30;6.72;;;4.38;;
11677;SDS011;5895;41.950;24.372;2024-03-23T12:37:57;6.13;;;4.35;;
11677;SDS011;5895;41.950;24.372;2024-03-23T12:40:23;13.00;;;7.47;;
11677;SDS011;5895;41.950;24.372;2024-03-23T12:42:51;6.50;;;4.75;;
11677;SDS011;5895;41.950;24.372;2024-03-23T12:45:17;18.75;;;10.75;;
11677;SDS011;5895;41.950;24.372;2024-03-23T12:47:44;6.38;;;3.55;;
11677;SDS011;5895;41.950;24.372;2024-03-23T12:50:11;3.10;;;2.65;;
11677;SDS011;5895;41.950;24.372;2024-03-23T12:52:39;3.60;;;2.92;;
11677;SDS011;5895;41.950;24.372;2024-03-23T12:55:05;3.10;;;2.70;;
11677;SDS011;5895;41.950;24.372;2024-03-23T12:57:33;2.97;;;2.60;;
11677;SDS011;5895;41.950;24.372;2024-03-23T12:59:59;7.40;;;2.30;;
11677;SDS011;5895;41.950;24.372;2024-03-23T13:02:26;4.20;;;2.08;;
11677;SDS011;5895;41.950;24.372;2024-03-23T13:04:53;2.35;;;2.15;;
11677;SDS011;5895;41.950;24.372;2024-03-23T13:07:22;7.35;;;3.10;;
11677;SDS011;5895;41.950;24.372;2024-03-23T13:09:51;4.43;;;3.85;;
11677;SDS011;5895;41.950;24.372;2024-03-23T13:12:19;2.85;;;2.63;;
11677;SDS011;5895;41.950;24.372;2024-03-23T13:14:45;6.63;;;4.50;;
11677;SDS011;5895;41.950;24.372;2024-03-23T13:17:12;3.17;;;2.85;;
11677;SDS011;5895;41.950;24.372;2024-03-23T13:19:39;3.28;;;2.40;;
11677;SDS011;5895;41.950;24.372;2024-03-23T13:22:06;6.53;;;3.33;;
11677;SDS011;5895;41.950;24.372;2024-03-23T13:24:32;3.85;;;3.30;;
11677;SDS011;5895;41.950;24.372;2024-03-23T13:27:01;4.43;;;3.55;;
11677;SDS011;5895;41.950;24.372;2024-03-23T13:29:27;3.17;;;2.85;;
11677;SDS011;5895;41.950;24.372;2024-03-23T13:31:54;2.50;;;2.30;;
11677;SDS011;5895;41.950;24.372;2024-03-23T13:34:20;3.45;;;2.55;;
11677;SDS011;5895;41.950;24.372;2024-03-23T13:36:47;3.83;;;2.95;;
11677;SDS011;5895;41.950;24.372;2024-03-23T13:39:13;3.22;;;2.75;;
11677;SDS011;5895;41.950;24.372;2024-03-23T13:41:41;2.47;;;2.28;;
11677;SDS011;5895;41.950;24.372;2024-03-23T13:44:10;4.38;;;2.42;;
11677;SDS011;5895;41.950;24.372;2024-03-23T13:46:38;3.67;;;2.55;;
11677;SDS011;5895;41.950;24.372;2024-03-23T13:49:05;4.03;;;3.00;;
11677;SDS011;5895;41.950;24.372;2024-03-23T13:51:33;3.13;;;2.83;;
11677;SDS011;5895;41.950;24.372;2024-03-23T13:53:59;3.08;;;2.78;;
11677;SDS011;5895;41.950;24.372;2024-03-23T13:56:27;3.15;;;2.42;;
11677;SDS011;5895;41.950;24.372;2024-03-23T13:58:54;3.22;;;2.60;;
11677;SDS011;5895;41.950;24.372;2024-03-23T14:01:23;5.13;;;2.70;;
11677;SDS011;5895;41.950;24.372;2024-03-23T14:03:49;7.55;;;2.90;;
11677;SDS011;5895;41.950;24.372;2024-03-23T14:06:16;3.67;;;2.67;;
11677;SDS011;5895;41.950;24.372;2024-03-23T14:08:42;4.40;;;2.60;;
11677;SDS011;5895;41.950;24.372;2024-03-23T14:11:09;3.13;;;2.40;;
11677;SDS011;5895;41.950;24.372;2024-03-23T14:13:35;2.38;;;2.17;;
11677;SDS011;5895;41.950;24.372;2024-03-23T14:16:03;2.75;;;2.50;;
11677;SDS011;5895;41.950;24.372;2024-03-23T14:18:31;4.40;;;3.00;;
11677;SDS011;5895;41.950;24.372;2024-03-23T14:20:59;4.38;;;3.10;;
11677;SDS011;5895;41.950;24.372;2024-03-23T14:23:26;4.35;;;3.17;;
11677;SDS011;5895;41.950;24.372;2024-03-23T14:25:54;2.40;;;2.20;;
11677;SDS011;5895;41.950;24.372;2024-03-23T14:28:21;2.60;;;2.40;;
11677;SDS011;5895;41.950;24.372;2024-03-23T14:30:49;2.67;;;2.47;;
11677;SDS011;5895;41.950;24.372;2024-03-23T14:33:15;6.32;;;2.85;;
11677;SDS011;5895;41.950;24.372;2024-03-23T14:35:48;5.93;;;3.00;;
11677;SDS011;5895;41.950;24.372;2024-03-23T14:38:18;3.45;;;3.15;;
11677;SDS011;5895;41.950;24.372;2024-03-23T14:40:45;2.83;;;2.58;;
11677;SDS011;5895;41.950;24.372;2024-03-23T14:43:11;4.78;;;3.75;;
11677;SDS011;5895;41.950;24.372;2024-03-23T14:45:45;6.10;;;2.47;;
11677;SDS011;5895;41.950;24.372;2024-03-23T14:48:29;2.67;;;2.47;;
11677;SDS011;5895;41.950;24.372;2024-03-23T14:50:58;3.00;;;2.70;;
11677;SDS011;5895;41.950;24.372;2024-03-23T14:53:24;3.63;;;2.92;;
11677;SDS011;5895;41.950;24.372;2024-03-23T14:55:54;5.15;;;3.55;;
11677;SDS011;5895;41.950;24.372;2024-03-23T14:58:20;9.48;;;3.60;;
11677;SDS011;5895;41.950;24.372;2024-03-23T15:00:48;6.47;;;3.42;;
11677;SDS011;5895;41.950;24.372;2024-03-23T15:03:17;5.60;;;3.35;;
11677;SDS011;5895;41.950;24.372;2024-03-23T15:05:51;4.82;;;3.10;;
11677;SDS011;5895;41.950;24.372;2024-03-23T15:08:19;10.80;;;7.63;;
11677;SDS011;5895;41.950;24.372;2024-03-23T15:10:46;7.90;;;4.93;;
11677;SDS011;5895;41.950;24.372;2024-03-23T15:13:13;4.95;;;4.30;;
11677;SDS011;5895;41.950;24.372;2024-03-23T15:15:41;3.60;;;3.13;;
11677;SDS011;5895;41.950;24.372;2024-03-23T15:18:09;3.00;;;2.78;;
11677;SDS011;5895;41.950;24.372;2024-03-23T15:20:38;4.28;;;3.05;;
11677;SDS011;5895;41.950;24.372;2024-03-23T15:23:13;5.38;;;4.20;;
11677;SDS011;5895;41.950;24.372;2024-03-23T15:25:43;9.40;;;7.10;;
11677;SDS011;5895;41.950;24.372;2024-03-23T15:28:09;6.72;;;4.35;;
11677;SDS011;5895;41.950;24.372;2024-03-23T15:30:36;9.02;;;6.15;;
11677;SDS011;5895;41.950;24.372;2024-03-23T15:33:03;10.60;;;5.75;;
11677;SDS011;5895;41.950;24.372;2024-03-23T15:35:30;14.32;;;7.90;;
11677;SDS011;5895;41.950;24.372;2024-03-23T15:37:56;8.15;;;6.50;;
11677;SDS011;5895;41.950;24.372;2024-03-23T15:40:23;29.05;;;18.60;;
11677;SDS011;5895;41.950;24.372;2024-03-23T15:42:51;7.78;;;5.60;;